Time;durP1;ratioP1;P1;durP2;ratioP2;P2;SDS_P1;SDS_P2;PMS_P1;PMS_P2;Temp;Humidity;BMP_temperature;BMP_pressure;BME280_temperature;BME280_humidity;BME280_pressure;Samples;Min_cycle;Max_cycle;Signal;HPM_P1;HPM_P2
2024/02/27 00:01:43;;;;;;;17.77;12.50;;;;;;;4.77;100.00;100669.44;5089084;28;20211;-73
2024/02/27 00:04:09;;;;;;;17.80;12.60;;;;;;;4.76;100.00;100665.06;5089640;28;20192;-73
2024/02/27 00:06:37;;;;;;;19.73;12.53;;;;;;;4.74;100.00;100675.69;5087964;28;20212;-73
2024/02/27 00:09:03;;;;;;;18.60;12.67;;;;;;;4.72;100.00;100677.53;5089485;28;20235;-74
2024/02/27 00:11:31;;;;;;;18.07;13.10;;;;;;;4.70;100.00;100673.22;5089107;28;20200;-73
2024/02/27 00:13:57;;;;;;;17.87;12.77;;;;;;;4.68;100.00;100685.59;5086555;28;20236;-71
2024/02/27 00:16:24;;;;;;;17.27;12.33;;;;;;;4.65;100.00;100681.34;5084464;28;20208;-73
2024/02/27 00:18:52;;;;;;;18.60;12.67;;;;;;;4.66;100.00;100682.19;5087020;28;20295;-73
2024/02/27 00:21:19;;;;;;;16.13;12.23;;;;;;;4.64;100.00;100687.53;5086900;28;20207;-73
2024/02/27 00:23:46;;;;;;;17.80;13.00;;;;;;;4.63;100.00;100685.81;5088358;28;20216;-73
2024/02/27 00:26:12;;;;;;;18.57;12.53;;;;;;;4.62;100.00;100688.50;5086644;28;20215;-73
2024/02/27 00:28:38;;;;;;;16.43;12.03;;;;;;;4.61;100.00;100682.38;5087009;28;20207;-74
2024/02/27 00:31:05;;;;;;;18.97;12.87;;;;;;;4.61;100.00;100682.38;5086188;28;20204;-72
2024/02/27 00:33:31;;;;;;;17.53;12.33;;;;;;;4.60;100.00;100678.00;5088203;28;20238;-74
2024/02/27 00:36:01;;;;;;;19.00;12.20;;;;;;;4.59;100.00;100676.28;5083155;28;20219;-73
2024/02/27 00:38:27;;;;;;;16.33;12.83;;;;;;;4.58;100.00;100685.13;5086398;28;20193;-73
2024/02/27 00:40:54;;;;;;;17.67;12.07;;;;;;;4.57;100.00;100680.75;5086820;28;20219;-73
2024/02/27 00:43:20;;;;;;;18.33;11.73;;;;;;;4.58;100.00;100685.13;5086800;28;20227;-73
2024/02/27 00:45:47;;;;;;;17.67;12.90;;;;;;;4.56;100.00;100691.38;5086640;28;20204;-73
2024/02/27 00:48:13;;;;;;;17.47;12.53;;;;;;;4.54;100.00;100688.78;5085655;28;20207;-73
2024/02/27 00:50:40;;;;;;;18.73;12.23;;;;;;;4.53;100.00;100690.56;5083977;28;20211;-73
2024/02/27 00:53:08;;;;;;;15.27;11.80;;;;;;;4.53;100.00;100694.97;5086033;28;20242;-74
2024/02/27 00:55:34;;;;;;;20.30;12.60;;;;;;;4.50;100.00;100687.16;5088990;28;20211;-73
2024/02/27 00:58:01;;;;;;;16.60;11.90;;;;;;;4.49;100.00;100693.34;5087974;28;20235;-74
2024/02/27 01:00:27;;;;;;;16.50;11.93;;;;;;;4.47;100.00;100687.31;5087789;28;20208;-73
2024/02/27 01:02:54;;;;;;;18.73;12.30;;;;;;;4.45;100.00;100682.09;5088112;28;20224;-73
2024/02/27 01:05:20;;;;;;;18.90;12.80;;;;;;;4.45;100.00;100686.50;5087570;28;20207;-74
2024/02/27 01:07:46;;;;;;;17.27;12.43;;;;;;;4.43;100.00;100685.69;5087152;28;20278;-72
2024/02/27 01:10:15;;;;;;;16.43;11.67;;;;;;;4.41;100.00;100687.53;5087738;28;20594;-73
2024/02/27 01:12:41;;;;;;;17.53;11.67;;;;;;;4.37;100.00;100684.16;5087490;28;20699;-73
2024/02/27 01:15:09;;;;;;;15.97;12.00;;;;;;;4.35;100.00;100685.13;5085184;28;20228;-72
2024/02/27 01:17:35;;;;;;;18.17;12.00;;;;;;;4.34;100.00;100686.03;5086103;28;20209;-74
2024/02/27 01:20:02;;;;;;;17.27;12.53;;;;;;;4.30;100.00;100677.38;5087482;28;20212;-73
2024/02/27 01:22:30;;;;;;;17.97;12.50;;;;;;;4.28;100.00;100675.72;5084880;28;20220;-71
2024/02/27 01:24:58;;;;;;;17.50;12.60;;;;;;;4.25;100.00;100673.19;5090326;28;20208;-73
2024/02/27 01:27:26;;;;;;;18.93;13.00;;;;;;;4.23;100.00;100677.66;5087135;28;20211;-73
2024/02/27 01:29:54;;;;;;;14.77;11.07;;;;;;;4.19;100.00;100676.91;5087748;28;20207;-73
2024/02/27 01:32:20;;;;;;;17.87;12.07;;;;;;;4.14;100.00;100674.44;5086231;28;20239;-73
2024/02/27 01:34:47;;;;;;;16.63;12.07;;;;;;;4.12;100.00;100678.91;5085864;28;20622;-72
2024/02/27 01:37:14;;;;;;;18.23;12.37;;;;;;;4.09;100.00;100681.69;5087456;28;20771;-74
2024/02/27 01:39:40;;;;;;;20.07;12.57;;;;;;;4.08;100.00;100689.63;5086229;28;20212;-73
2024/02/27 01:42:06;;;;;;;18.57;12.83;;;;;;;4.06;100.00;100684.41;5085508;28;20228;-74
2024/02/27 01:44:34;;;;;;;18.80;12.90;;;;;;;4.04;100.00;100695.94;5086542;28;20212;-73
2024/02/27 01:47:01;;;;;;;18.63;12.57;;;;;;;4.00;100.00;100692.53;5086943;28;20679;-73
2024/02/27 01:49:28;;;;;;;17.00;11.63;;;;;;;3.96;100.00;100692.69;5087625;28;20587;-73
2024/02/27 01:51:56;;;;;;;18.83;12.10;;;;;;;3.94;100.00;100692.75;5080310;28;20235;-74
2024/02/27 01:54:26;;;;;;;17.47;11.50;;;;;;;3.92;100.00;100694.59;5085432;28;20220;-73
2024/02/27 01:56:54;;;;;;;18.63;12.20;;;;;;;3.88;100.00;100698.25;5091709;28;20488;-71
2024/02/27 01:59:22;;;;;;;20.57;12.70;;;;;;;3.87;100.00;100707.06;5089909;28;20211;-73
2024/02/27 02:01:52;;;;;;;19.17;12.00;;;;;;;3.84;100.00;100707.16;5085740;28;20281;-71
2024/02/27 02:04:18;;;;;;;16.80;11.03;;;;;;;3.81;100.00;100702.00;5082001;28;20202;-73
2024/02/27 02:06:46;;;;;;;15.43;11.60;;;;;;;3.79;100.00;100701.19;5086852;28;20204;-74
2024/02/27 02:09:13;;;;;;;17.73;12.40;;;;;;;3.76;100.00;100698.69;5084634;28;21460;-74
2024/02/27 02:11:40;;;;;;;16.33;11.73;;;;;;;3.73;100.00;100710.19;5086718;28;20380;-74
2024/02/27 02:14:07;;;;;;;15.97;10.93;;;;;;;3.70;100.00;100714.69;5082846;28;20221;-74
2024/02/27 02:16:33;;;;;;;14.93;10.63;;;;;;;3.67;100.00;100723.53;5087590;28;20207;-74
2024/02/27 02:19:01;;;;;;;17.57;12.20;;;;;;;3.65;100.00;100725.38;5087151;28;20202;-73
2024/02/27 02:21:29;;;;;;;17.23;11.53;;;;;;;3.62;100.00;100724.59;5085649;28;20204;-74
2024/02/27 02:23:59;;;;;;;16.53;11.50;;;;;;;3.58;100.00;100728.28;5083838;28;20223;-72
2024/02/27 02:26:28;;;;;;;17.63;10.83;;;;;;;3.56;100.00;100730.97;5087015;28;20211;-74
2024/02/27 02:28:54;;;;;;;16.23;11.63;;;;;;;3.54;100.00;100727.50;5083260;28;20231;-71
2024/02/27 02:31:21;;;;;;;16.03;11.80;;;;;;;3.52;100.00;100736.38;5087612;28;20219;-74
2024/02/27 02:33:47;;;;;;;16.17;12.23;;;;;;;3.48;100.00;100739.09;5084179;28;20224;-71
2024/02/27 02:36:14;;;;;;;16.03;10.63;;;;;;;3.46;100.00;100745.31;5086430;28;20220;-74
2024/02/27 02:38:42;;;;;;;17.93;11.80;;;;;;;3.42;100.00;100741.91;5087521;28;20375;-73
2024/02/27 02:41:07;;;;;;;14.60;10.40;;;;;;;3.40;100.00;100754.28;5082667;28;20207;-73
2024/02/27 02:43:34;;;;;;;17.80;11.30;;;;;;;3.40;100.00;100751.63;5085529;28;20224;-74
2024/02/27 02:46:01;;;;;;;14.40;11.30;;;;;;;3.36;100.00;100757.94;5087016;28;20203;-73
2024/02/27 02:48:27;;;;;;;16.43;11.30;;;;;;;3.34;100.00;100769.41;5085760;28;20196;-74
2024/02/27 02:50:53;;;;;;;19.83;11.77;;;;;;;3.32;100.00;100768.59;5086826;28;20227;-72
2024/02/27 02:53:20;;;;;;;17.57;11.53;;;;;;;3.29;100.00;100766.91;5085556;28;20227;-74
2024/02/27 02:55:48;;;;;;;17.43;11.20;;;;;;;3.26;100.00;100755.63;5086334;28;20220;-73
2024/02/27 02:58:14;;;;;;;18.10;12.03;;;;;;;3.25;100.00;100769.69;5086455;28;20210;-73
2024/02/27 03:00:41;;;;;;;18.83;11.63;;;;;;;3.22;100.00;100769.81;5085738;28;20226;-73
2024/02/27 03:03:07;;;;;;;19.37;11.93;;;;;;;3.20;100.00;100769.00;5086066;28;20298;-73
2024/02/27 03:05:33;;;;;;;22.33;12.90;;;;;;;3.18;100.00;100776.94;5086345;28;20231;-73
2024/02/27 03:08:00;;;;;;;19.93;12.13;;;;;;;3.16;100.00;100775.25;5084942;28;20216;-73
2024/02/27 03:10:26;;;;;;;22.07;12.80;;;;;;;3.13;100.00;100777.06;5084233;28;20200;-71
2024/02/27 03:12:54;;;;;;;19.37;12.07;;;;;;;3.12;100.00;100787.63;5085290;28;20236;-73
2024/02/27 03:15:21;;;;;;;18.43;11.87;;;;;;;3.09;100.00;100795.63;5086304;28;20667;-74
2024/02/27 03:17:47;;;;;;;19.43;11.93;;;;;;;3.06;100.00;100795.72;5086851;28;20366;-73
2024/02/27 03:20:14;;;;;;;21.03;12.43;;;;;;;3.03;100.00;100798.47;5086224;28;20201;-73
2024/02/27 03:22:40;;;;;;;18.30;12.53;;;;;;;3.00;100.00;100798.56;5084950;28;20227;-73
2024/02/27 03:25:08;;;;;;;20.77;13.33;;;;;;;2.98;100.00;100792.47;5086110;28;20443;-73
2024/02/27 03:27:34;;;;;;;20.20;12.47;;;;;;;2.96;100.00;100782.00;5086839;28;20200;-73
2024/02/27 03:30:03;;;;;;;19.17;12.13;;;;;;;2.94;100.00;100786.44;5087008;28;20212;-73
2024/02/27 03:32:29;;;;;;;20.13;12.70;;;;;;;2.93;100.00;100781.22;5080273;28;20231;-71
2024/02/27 03:34:56;;;;;;;20.47;12.57;;;;;;;2.87;100.00;100790.13;5093491;28;20235;-74
2024/02/27 03:37:22;;;;;;;23.03;13.40;;;;;;;2.85;100.00;100801.63;5089182;28;20207;-73
2024/02/27 03:39:49;;;;;;;24.70;14.57;;;;;;;2.82;100.00;100809.63;5090202;28;20208;-74
2024/02/27 03:42:15;;;;;;;23.00;13.60;;;;;;;2.77;100.00;100805.34;5088946;28;20242;-74
2024/02/27 03:44:45;;;;;;;25.23;14.83;;;;;;;2.73;100.00;100802.84;5091198;28;20196;-73
2024/02/27 03:47:13;;;;;;;25.90;13.93;;;;;;;2.72;100.00;100803.75;5089919;28;20218;-74
2024/02/27 03:49:40;;;;;;;27.93;14.30;;;;;;;2.71;100.00;100802.88;5090197;28;20291;-73
2024/02/27 03:52:06;;;;;;;28.67;14.40;;;;;;;2.66;100.00;100804.78;5089421;28;20749;-73
2024/02/27 03:54:33;;;;;;;28.73;14.33;;;;;;;2.64;100.00;100803.09;5090728;28;20216;-73
2024/02/27 03:56:59;;;;;;;26.97;14.87;;;;;;;2.62;100.00;100802.28;5089272;28;20208;-73
2024/02/27 03:59:26;;;;;;;29.23;15.43;;;;;;;2.59;100.00;100805.88;5089134;28;20208;-73
2024/02/27 04:01:52;;;;;;;31.70;15.93;;;;;;;2.59;100.00;100805.88;5090223;28;20208;-73
2024/02/27 04:04:20;;;;;;;28.00;14.90;;;;;;;2.60;100.00;100806.72;5091093;28;20200;-73
2024/02/27 04:06:46;;;;;;;30.00;15.90;;;;;;;2.60;100.00;100806.72;5091945;28;20216;-73
2024/02/27 04:09:13;;;;;;;32.57;15.73;;;;;;;2.57;100.00;100796.28;5088471;28;20208;-74
2024/02/27 04:11:39;;;;;;;30.47;16.70;;;;;;;2.53;100.00;100803.41;5089738;28;20204;-72
2024/02/27 04:14:06;;;;;;;33.60;16.10;;;;;;;2.52;100.00;100809.56;5088892;28;20579;-72
2024/02/27 04:16:32;;;;;;;30.27;16.23;;;;;;;2.51;100.00;100807.81;5087904;28;20568;-74
2024/02/27 04:18:59;;;;;;;28.47;15.03;;;;;;;2.52;100.00;100821.84;5089866;28;20300;-73
2024/02/27 04:21:26;;;;;;;31.40;15.40;;;;;;;2.52;100.00;100819.22;5088380;28;20204;-73
2024/02/27 04:23:53;;;;;;;29.60;15.07;;;;;;;2.51;100.00;100823.59;5089604;28;20228;-74
2024/02/27 04:26:19;;;;;;;30.77;16.30;;;;;;;2.52;100.00;100825.31;5088163;28;20203;-73
2024/02/27 04:28:46;;;;;;;32.93;17.17;;;;;;;2.50;100.00;100835.06;5089155;28;20212;-74
2024/02/27 04:31:13;;;;;;;33.13;16.53;;;;;;;2.50;100.00;100834.19;5088068;28;20211;-73
2024/02/27 04:33:40;;;;;;;31.10;15.87;;;;;;;2.52;100.00;100843.72;5087689;28;20256;-73
2024/02/27 04:36:08;;;;;;;34.00;16.47;;;;;;;2.55;100.00;100837.53;5089433;28;20274;-73
2024/02/27 04:38:36;;;;;;;33.27;16.30;;;;;;;2.56;100.00;100842.75;5089453;28;20211;-73
2024/02/27 04:41:03;;;;;;;35.07;17.27;;;;;;;2.59;100.00;100837.41;5088656;28;20231;-73
2024/02/27 04:43:29;;;;;;;30.80;15.97;;;;;;;2.58;100.00;100829.56;5087368;28;20274;-73
2024/02/27 04:45:55;;;;;;;34.83;17.10;;;;;;;2.58;100.00;100835.69;5085601;28;20759;-73
2024/02/27 04:48:22;;;;;;;32.30;15.87;;;;;;;2.59;100.00;100841.81;5086708;28;20219;-73
2024/02/27 04:50:48;;;;;;;34.70;16.77;;;;;;;2.58;100.00;100846.19;5088050;28;20196;-72
2024/02/27 04:53:15;;;;;;;28.07;15.13;;;;;;;2.60;100.00;100854.91;5087636;28;20227;-72
2024/02/27 04:55:43;;;;;;;32.90;17.60;;;;;;;2.60;100.00;100852.28;5088050;28;20227;-72
2024/02/27 04:58:09;;;;;;;33.70;15.23;;;;;;;2.63;100.00;100859.22;5087647;28;20204;-73
2024/02/27 05:00:35;;;;;;;36.53;16.40;;;;;;;2.64;100.00;100869.72;5087634;28;20212;-71
2024/02/27 05:03:02;;;;;;;33.33;16.63;;;;;;;2.66;100.00;100870.53;5087710;28;20224;-73
2024/02/27 05:05:28;;;;;;;31.90;16.17;;;;;;;2.66;100.00;100864.41;5087184;28;20200;-73
2024/02/27 05:07:55;;;;;;;30.67;15.10;;;;;;;2.67;100.00;100867.00;5088196;28;20208;-73
2024/02/27 05:10:21;;;;;;;32.10;15.97;;;;;;;2.68;100.00;100866.09;5085475;28;20212;-70
2024/02/27 05:12:49;;;;;;;32.73;16.07;;;;;;;2.69;100.00;100874.81;5087248;28;20224;-73
2024/02/27 05:15:15;;;;;;;30.10;15.60;;;;;;;2.67;100.00;100882.78;5088221;28;20224;-73
2024/02/27 05:17:43;;;;;;;35.37;16.63;;;;;;;2.68;100.00;100883.66;5087389;28;20212;-73
2024/02/27 05:20:11;;;;;;;36.03;17.20;;;;;;;2.69;100.00;100883.56;5086767;28;20210;-72
2024/02/27 05:22:38;;;;;;;31.63;16.00;;;;;;;2.69;100.00;100880.94;5082652;28;20221;-73
2024/02/27 05:25:05;;;;;;;34.37;15.30;;;;;;;2.70;100.00;100879.19;5086161;28;20200;-71
2024/02/27 05:27:31;;;;;;;36.23;16.50;;;;;;;2.70;100.00;100880.03;5086696;28;20205;-73
2024/02/27 05:29:59;;;;;;;33.07;16.83;;;;;;;2.71;100.00;100876.50;5086303;28;20204;-73
2024/02/27 05:32:26;;;;;;;31.83;16.20;;;;;;;2.72;100.00;100870.34;5087266;28;20441;-73
2024/02/27 05:34:52;;;;;;;37.87;17.30;;;;;;;2.75;100.00;100872.03;5086666;28;20220;-73
2024/02/27 05:37:19;;;;;;;32.10;16.73;;;;;;;2.76;100.00;100872.00;5084216;28;20227;-70
2024/02/27 05:39:45;;;;;;;33.43;16.37;;;;;;;2.77;100.00;100871.09;5087507;28;20223;-73
2024/02/27 05:42:11;;;;;;;29.50;15.20;;;;;;;2.77;100.00;100878.97;5087501;28;20231;-72
2024/02/27 05:44:38;;;;;;;33.33;16.67;;;;;;;2.77;100.00;100878.97;5086454;28;20196;-72
2024/02/27 05:47:06;;;;;;;35.07;17.30;;;;;;;2.77;100.00;100876.34;5082062;28;20211;-72
2024/02/27 05:49:32;;;;;;;32.70;16.83;;;;;;;2.79;100.00;100887.69;5084463;28;20204;-72
2024/02/27 05:51:59;;;;;;;31.93;15.47;;;;;;;2.78;100.00;100887.72;5085782;28;20207;-74
2024/02/27 05:54:25;;;;;;;33.40;16.87;;;;;;;2.78;100.00;100891.22;5087189;28;20420;-72
2024/02/27 05:56:53;;;;;;;34.17;16.73;;;;;;;2.79;100.00;100892.97;5085423;28;20593;-72
2024/02/27 05:59:19;;;;;;;33.50;15.90;;;;;;;2.83;100.00;100893.75;5083825;28;20294;-72
2024/02/27 06:01:46;;;;;;;29.60;15.20;;;;;;;2.85;100.00;100891.06;5084215;28;20204;-74
2024/02/27 06:04:14;;;;;;;28.13;15.23;;;;;;;2.86;100.00;100895.44;5086937;28;20223;-73
2024/02/27 06:06:40;;;;;;;31.47;16.20;;;;;;;2.86;100.00;100905.94;5087196;28;20204;-74
2024/02/27 06:09:08;;;;;;;35.27;16.93;;;;;;;2.86;100.00;100911.22;5085802;28;20219;-73
2024/02/27 06:11:35;;;;;;;31.17;16.30;;;;;;;2.87;100.00;100910.28;5084860;28;20261;-73
2024/02/27 06:14:02;;;;;;;31.67;15.53;;;;;;;2.86;100.00;100908.56;5086090;28;20304;-73
2024/02/27 06:16:29;;;;;;;26.57;14.13;;;;;;;2.85;100.00;100912.13;5085539;28;20227;-74
2024/02/27 06:18:55;;;;;;;24.43;14.47;;;;;;;2.86;100.00;100924.38;5087501;28;20432;-73
2024/02/27 06:24:07;;;;;;;27.37;14.73;;;;;;;2.86;100.00;100934.88;5085296;28;20800;-73
2024/02/27 06:26:34;;;;;;;32.07;14.10;;;;;;;2.85;100.00;100931.38;5087093;28;20215;-73
2024/02/27 06:29:00;;;;;;;31.07;14.70;;;;;;;2.86;100.00;100935.75;5086137;28;20200;-73
2024/02/27 06:31:27;;;;;;;28.50;14.70;;;;;;;2.87;100.00;100942.69;5082647;28;20212;-73
2024/02/27 06:33:53;;;;;;;25.43;13.40;;;;;;;2.88;100.00;100943.56;5084493;28;20236;-71
2024/02/27 06:36:22;;;;;;;29.77;15.30;;;;;;;2.86;100.00;100943.63;5080411;28;20220;-74
2024/02/27 06:38:49;;;;;;;31.33;14.63;;;;;;;2.90;100.00;100947.03;5089710;28;20278;-73
2024/02/27 06:41:16;;;;;;;25.43;14.00;;;;;;;2.89;100.00;100950.56;5087939;28;20212;-73
2024/02/27 06:43:42;;;;;;;31.30;15.57;;;;;;;2.91;100.00;100960.13;5085265;28;20227;-72
2024/02/27 06:46:09;;;;;;;27.57;13.60;;;;;;;2.91;100.00;100965.41;5087769;28;20200;-73
2024/02/27 06:48:35;;;;;;;28.53;15.03;;;;;;;2.94;100.00;100959.19;5087554;28;20200;-73
2024/02/27 06:51:06;;;;;;;32.07;15.10;;;;;;;2.95;100.00;100960.94;5089826;28;20225;-74
2024/02/27 06:53:32;;;;;;;27.13;14.27;;;;;;;2.96;100.00;100965.28;5087474;28;20240;-74
2024/02/27 06:56:00;;;;;;;28.60;14.43;;;;;;;2.97;100.00;100975.78;5088097;28;20257;-74
2024/02/27 06:58:27;;;;;;;28.63;13.33;;;;;;;2.99;100.00;100973.09;5084933;28;20215;-73
2024/02/27 07:00:53;;;;;;;30.40;14.60;;;;;;;2.99;100.00;100979.22;5080265;28;20205;-74
2024/02/27 07:03:20;;;;;;;28.47;14.27;;;;;;;3.01;100.00;100982.69;5083406;28;20220;-74
2024/02/27 07:05:46;;;;;;;30.10;13.87;;;;;;;3.03;100.00;100980.00;5084853;28;20212;-75
2024/02/27 07:08:13;;;;;;;27.47;14.20;;;;;;;3.06;100.00;100982.53;5085664;28;20686;-75
2024/02/27 07:10:39;;;;;;;26.93;14.53;;;;;;;3.07;100.00;100974.59;5086703;28;20278;-74
2024/02/27 07:13:08;;;;;;;29.30;14.37;;;;;;;3.10;100.00;100971.03;5087838;28;20502;-74
2024/02/27 07:15:35;;;;;;;27.07;13.40;;;;;;;3.11;100.00;100978.88;5084684;28;20233;-74
2024/02/27 07:18:02;;;;;;;25.43;13.93;;;;;;;3.11;100.00;100980.66;5085661;28;20201;-73
2024/02/27 07:20:30;;;;;;;24.23;13.40;;;;;;;3.12;100.00;100985.00;5085419;28;20698;-73
2024/02/27 07:22:57;;;;;;;27.30;14.90;;;;;;;3.12;100.00;100985.88;5081639;28;20220;-74
2024/02/27 07:25:24;;;;;;;33.10;15.17;;;;;;;3.14;100.00;100989.34;5086850;28;20283;-75
2024/02/27 07:27:50;;;;;;;27.77;14.27;;;;;;;3.16;100.00;100993.69;5085452;28;20204;-74
2024/02/27 07:30:18;;;;;;;26.93;13.47;;;;;;;3.16;100.00;100988.44;5081167;28;20208;-74
2024/02/27 07:32:45;;;;;;;29.67;13.87;;;;;;;3.20;100.00;100988.31;5085167;28;20595;-72
2024/02/27 07:35:12;;;;;;;26.30;13.63;;;;;;;3.25;100.00;100988.16;5083849;28;20211;-73
2024/02/27 07:37:40;;;;;;;28.03;14.70;;;;;;;3.28;100.00;100986.31;5086474;28;20204;-71
2024/02/27 07:40:08;;;;;;;28.27;13.60;;;;;;;3.31;100.00;100996.75;5079187;28;20329;-74
2024/02/27 07:42:35;;;;;;;22.80;13.23;;;;;;;3.34;100.00;101007.22;5083975;28;20219;-73
2024/02/27 07:45:01;;;;;;;23.93;14.33;;;;;;;3.36;100.00;101002.75;5085567;28;20564;-74
2024/02/27 07:47:29;;;;;;;26.00;13.80;;;;;;;3.39;100.00;100999.19;5085319;28;20208;-73
2024/02/27 07:49:56;;;;;;;26.53;14.83;;;;;;;3.42;100.00;100999.94;5085087;28;20204;-73
2024/02/27 07:52:22;;;;;;;24.87;13.50;;;;;;;3.46;100.00;101016.53;5086139;28;20281;-74
2024/02/27 07:54:49;;;;;;;26.67;12.87;;;;;;;3.49;100.00;101009.41;5083834;28;20196;-73
2024/02/27 07:57:15;;;;;;;22.80;13.07;;;;;;;3.50;100.00;101012.91;5087374;28;20220;-74
2024/02/27 07:59:42;;;;;;;29.43;14.23;;;;;;;3.52;100.00;101010.22;5084966;28;20205;-73
2024/02/27 08:02:08;;;;;;;24.93;13.30;;;;;;;3.51;100.00;101004.09;5085312;28;20224;-73
2024/02/27 08:04:36;;;;;;;26.80;13.43;;;;;;;3.51;100.00;101013.75;5086404;28;20200;-73
2024/02/27 08:07:03;;;;;;;23.77;12.57;;;;;;;3.54;100.00;101013.69;5084453;28;20196;-74
2024/02/27 08:09:29;;;;;;;23.83;12.80;;;;;;;3.55;100.00;101007.50;5084725;28;20212;-75
2024/02/27 08:11:56;;;;;;;19.30;10.93;;;;;;;3.58;100.00;101010.06;5085911;28;20285;-77
2024/02/27 08:14:25;;;;;;;21.50;11.77;;;;;;;3.58;100.00;101015.31;5085990;28;20588;-72
2024/02/27 08:16:51;;;;;;;21.67;12.53;;;;;;;3.60;100.00;101019.63;5085757;28;20840;-76
2024/02/27 08:19:18;;;;;;;21.80;11.77;;;;;;;3.64;100.00;101015.13;5087769;28;20746;-76
2024/02/27 08:21:45;;;;;;;21.17;11.93;;;;;;;3.67;100.00;101017.69;5088659;28;20212;-76
2024/02/27 08:24:12;;;;;;;27.67;12.77;;;;;;;3.67;100.00;101029.06;5089323;28;20215;-74
2024/02/27 08:26:39;;;;;;;23.43;11.83;;;;;;;3.68;100.00;101030.81;5088189;28;20253;-74
2024/02/27 08:29:06;;;;;;;23.77;11.57;;;;;;;3.72;100.00;101021.06;5089669;28;20208;-74
2024/02/27 08:31:32;;;;;;;21.40;12.23;;;;;;;3.73;100.00;101022.78;5089068;28;20208;-74
2024/02/27 08:33:58;;;;;;;21.37;12.33;;;;;;;3.74;100.00;101022.72;5088766;28;20236;-74
2024/02/27 08:36:26;;;;;;;20.90;12.70;;;;;;;3.74;100.00;101022.72;5089045;28;20224;-75
2024/02/27 08:38:54;;;;;;;23.87;13.17;;;;;;;3.79;100.00;101030.47;5086312;28;20204;-75
2024/02/27 08:41:21;;;;;;;20.43;11.40;;;;;;;3.81;100.00;101029.53;5088149;28;20291;-75
2024/02/27 08:43:49;;;;;;;25.10;11.80;;;;;;;3.83;100.00;101029.50;5088720;28;20235;-72
2024/02/27 08:46:17;;;;;;;21.17;11.70;;;;;;;3.82;100.00;101031.25;5089601;28;20232;-74
2024/02/27 08:48:43;;;;;;;22.23;12.87;;;;;;;3.84;100.00;101023.31;5088813;28;20232;-77
2024/02/27 08:51:10;;;;;;;19.33;12.17;;;;;;;3.86;100.00;101026.78;5086179;28;20572;-76
2024/02/27 08:53:37;;;;;;;19.87;11.57;;;;;;;3.87;100.00;101027.63;5081928;28;20236;-72
2024/02/27 08:56:06;;;;;;;17.87;10.73;;;;;;;3.91;100.00;101034.53;5088390;28;20231;-74
2024/02/27 08:58:33;;;;;;;18.40;10.97;;;;;;;3.93;100.00;101040.63;5086758;28;20211;-74
2024/02/27 09:00:59;;;;;;;18.27;10.60;;;;;;;3.95;100.00;101031.75;5088329;28;20208;-74
2024/02/27 09:03:26;;;;;;;19.20;10.80;;;;;;;4.00;100.00;101037.75;5085047;28;20220;-74
2024/02/27 09:05:52;;;;;;;20.73;12.23;;;;;;;4.03;100.00;101037.66;5087901;28;20200;-77
2024/02/27 09:08:18;;;;;;;21.93;12.53;;;;;;;4.06;100.00;101037.56;5087962;28;20207;-76
2024/02/27 09:10:45;;;;;;;21.43;10.83;;;;;;;4.09;100.00;101044.53;5087491;28;20213;-74
2024/02/27 09:13:13;;;;;;;22.97;11.47;;;;;;;4.11;100.00;101040.09;5086814;28;20220;-74
2024/02/27 09:15:39;;;;;;;19.23;10.57;;;;;;;4.15;100.00;101041.69;5086719;28;20215;-72
2024/02/27 09:18:06;;;;;;;22.93;11.80;;;;;;;4.17;100.00;101037.25;5087876;28;20207;-74
2024/02/27 09:20:32;;;;;;;28.70;13.10;;;;;;;4.19;100.00;101038.06;5087877;28;20204;-73
2024/02/27 09:22:59;;;;;;;25.07;12.17;;;;;;;4.23;100.00;101042.34;5086258;28;20318;-75
2024/02/27 09:25:25;;;;;;;23.73;12.43;;;;;;;4.30;100.00;101035.94;5083501;28;21064;-76
2024/02/27 09:27:52;;;;;;;20.40;11.97;;;;;;;4.36;100.00;101053.34;5087509;28;20196;-69
2024/02/27 09:30:20;;;;;;;22.50;10.77;;;;;;;4.39;100.00;101042.72;5087127;28;20204;-75
2024/02/27 09:32:46;;;;;;;23.17;11.60;;;;;;;4.40;100.00;101055.00;5085755;28;20221;-75
2024/02/27 09:35:13;;;;;;;24.07;12.70;;;;;;;4.40;100.00;101044.44;5088314;28;20219;-74
2024/02/27 09:38:05;;;;;;;20.43;12.13;;;;;;;4.42;100.00;101048.75;5085369;28;20235;-74
2024/02/27 09:40:32;;;;;;;21.87;11.47;;;;;;;4.44;100.00;101046.94;5087711;28;20699;-75
2024/02/27 09:43:02;;;;;;;20.70;11.97;;;;;;;4.44;100.00;101040.81;5086289;28;20228;-75
2024/02/27 09:45:30;;;;;;;24.10;11.77;;;;;;;4.45;100.00;101047.81;5082704;28;20208;-76
2024/02/27 09:47:58;;;;;;;20.33;11.03;;;;;;;4.49;100.00;101055.53;5086731;28;20687;-74
2024/02/27 09:50:26;;;;;;;25.07;11.80;;;;;;;4.53;100.00;101051.03;5087601;28;20214;-77
2024/02/27 09:52:55;;;;;;;19.67;10.73;;;;;;;4.58;100.00;101042.97;5086085;28;20235;-74
2024/02/27 09:55:23;;;;;;;21.30;10.67;;;;;;;4.62;100.00;101048.13;5084997;28;20207;-74
2024/02/27 09:57:50;;;;;;;19.10;10.67;;;;;;;4.65;99.36;101044.53;5087045;28;20227;-75
2024/02/27 10:00:17;;;;;;;22.57;10.83;;;;;;;4.67;98.70;101040.03;5086844;28;20208;-76
2024/02/27 10:02:48;;;;;;;18.90;11.67;;;;;;;4.71;98.74;101044.31;5086101;28;20371;-72
2024/02/27 10:05:18;;;;;;;20.27;12.90;;;;;;;4.73;98.88;101051.25;5085921;28;20235;-77
2024/02/27 10:07:47;;;;;;;20.17;11.97;;;;;;;4.75;99.21;101049.44;5085509;28;21021;-74
2024/02/27 10:10:13;;;;;;;19.43;11.33;;;;;;;4.79;98.96;101045.78;5087140;28;20204;-77
2024/02/27 10:12:40;;;;;;;20.07;11.37;;;;;;;4.81;98.22;101041.31;5085827;28;20605;-76
2024/02/27 10:15:07;;;;;;;17.53;11.07;;;;;;;4.86;97.83;101041.16;5086634;28;20207;-76
2024/02/27 10:17:35;;;;;;;19.57;11.33;;;;;;;4.87;97.83;101043.75;5086195;28;21138;-74
2024/02/27 10:20:04;;;;;;;19.77;10.53;;;;;;;4.91;97.12;101041.00;5086524;28;20671;-75
2024/02/27 10:22:31;;;;;;;18.63;11.27;;;;;;;4.96;96.70;101045.22;5085635;28;20278;-72
2024/02/27 10:25:05;;;;;;;22.87;12.63;;;;;;;4.96;95.88;101044.34;5083517;28;20214;-75
2024/02/27 10:27:32;;;;;;;18.13;11.47;;;;;;;4.99;96.19;101037.19;5085800;28;20322;-76
2024/02/27 10:29:58;;;;;;;19.07;11.60;;;;;;;5.03;95.99;101036.16;5083497;28;20200;-77
2024/02/27 10:32:25;;;;;;;19.33;10.63;;;;;;;5.03;95.97;101036.16;5086878;28;20243;-74
2024/02/27 10:34:54;;;;;;;21.03;10.60;;;;;;;5.06;95.22;101033.41;5085244;28;20200;-73
2024/02/27 10:37:24;;;;;;;17.63;10.67;;;;;;;5.11;95.12;101038.53;5085315;28;20608;-74
2024/02/27 10:39:50;;;;;;;19.73;11.40;;;;;;;5.13;95.17;101039.38;5087078;28;20199;-74
2024/02/27 10:42:17;;;;;;;19.63;11.47;;;;;;;5.15;94.65;101033.13;5084617;28;20216;-75
2024/02/27 10:44:43;;;;;;;16.33;10.50;;;;;;;5.18;94.46;101037.44;5086468;28;20204;-75
2024/02/27 10:47:10;;;;;;;20.13;11.77;;;;;;;5.20;94.03;101035.56;5085875;28;20204;-74
2024/02/27 10:49:37;;;;;;;19.10;11.33;;;;;;;5.23;94.03;101032.84;5086461;28;20209;-74
2024/02/27 10:52:05;;;;;;;18.10;10.87;;;;;;;5.23;93.43;101022.28;5085564;28;20220;-74
2024/02/27 10:54:33;;;;;;;18.33;11.63;;;;;;;5.28;93.35;101027.38;5086372;28;20212;-75
2024/02/27 10:57:00;;;;;;;21.47;10.97;;;;;;;5.29;93.59;101032.63;5085816;28;20727;-76
2024/02/27 10:59:27;;;;;;;19.57;11.77;;;;;;;5.30;92.54;101028.22;5085128;28;20201;-75
2024/02/27 11:01:56;;;;;;;18.70;11.57;;;;;;;5.32;92.67;101027.25;5084995;28;20675;-77
2024/02/27 11:04:25;;;;;;;17.10;10.80;;;;;;;5.35;92.29;101026.28;5085288;28;20208;-75
2024/02/27 11:06:53;;;;;;;19.40;11.80;;;;;;;5.35;92.20;101037.69;5085013;28;20193;-75
2024/02/27 11:09:26;;;;;;;19.87;11.90;;;;;;;5.38;92.97;101032.28;5085957;28;20207;-75
2024/02/27 11:11:57;;;;;;;18.17;10.80;;;;;;;5.41;92.88;101040.09;5084917;28;20200;-73